Time;durP1;ratioP1;P1;durP2;ratioP2;P2;SDS_P1;SDS_P2;PMS_P1;PMS_P2;Temp;Humidity;BMP_temperature;BMP_pressure;BME280_temperature;BME280_humidity;BME280_pressure;Samples;Min_cycle;Max_cycle;Signal;HPM_P1;HPM_P2
2022/05/18 00:01:07;;;;;;;2.03;0.98;;;;;;;12.42;41.49;101190.47;4975527;28;20039;-78
2022/05/18 00:03:44;;;;;;;0.60;0.60;;;;;;;12.41;41.23;101195.41;4959468;28;20069;-78
2022/05/18 00:06:10;;;;;;;1.25;0.75;;;;;;;12.37;41.54;101188.25;4975651;28;20027;-79
2022/05/18 00:08:36;;;;;;;3.88;1.10;;;;;;;12.37;41.36;101199.66;4976588;28;20033;-79
2022/05/18 00:11:05;;;;;;;0.88;0.60;;;;;;;12.32;41.75;101212.50;4958973;28;20121;-78
2022/05/18 00:13:35;;;;;;;0.88;0.65;;;;;;;12.28;41.31;101211.06;4975034;28;20047;-78
2022/05/18 00:16:02;;;;;;;0.52;0.43;;;;;;;12.17;41.77;101207.81;4975484;28;20034;-78
2022/05/18 00:18:30;;;;;;;1.08;0.70;;;;;;;12.18;41.44;101206.56;4976070;28;20472;-78
2022/05/18 00:20:56;;;;;;;1.83;0.68;;;;;;;12.17;41.57;101217.19;4974338;28;20050;-78
2022/05/18 00:23:22;;;;;;;3.45;0.80;;;;;;;12.13;41.74;101222.25;4976165;28;20031;-78
2022/05/18 00:25:48;;;;;;;0.88;0.80;;;;;;;12.09;41.75;101218.72;4974832;28;20038;-78
2022/05/18 00:28:18;;;;;;;2.05;0.93;;;;;;;12.02;41.63;101222.66;4958198;28;20019;-78
2022/05/18 00:30:43;;;;;;;2.28;0.85;;;;;;;11.91;41.85;101218.59;4958693;28;20034;-78
2022/05/18 00:33:10;;;;;;;1.27;0.70;;;;;;;11.88;42.13;101233.81;4958317;28;20039;-79
2022/05/18 00:35:39;;;;;;;0.60;0.60;;;;;;;11.80;42.38;101238.19;4974680;28;20035;-78
2022/05/18 00:38:09;;;;;;;0.75;0.57;;;;;;;11.71;42.14;101238.91;4975531;28;20041;-78
2022/05/18 00:40:38;;;;;;;0.80;0.77;;;;;;;11.64;42.66;101242.81;4942508;28;20038;-78
2022/05/18 00:43:04;;;;;;;0.95;0.80;;;;;;;11.57;43.11;101245.13;4942778;28;20031;-79
2022/05/18 00:45:30;;;;;;;1.17;0.90;;;;;;;11.49;43.35;101252.38;4958300;28;20030;-78
2022/05/18 00:47:58;;;;;;;1.85;0.80;;;;;;;11.45;43.10;101254.53;4958360;28;20025;-78
2022/05/18 00:50:31;;;;;;;1.00;0.60;;;;;;;11.34;43.76;101260.63;4958140;28;20046;-78
2022/05/18 00:53:10;;;;;;;4.93;0.90;;;;;;;11.30;43.84;101268.50;4958213;28;20035;-78
2022/05/18 00:55:43;;;;;;;2.17;0.88;;;;;;;11.24;44.27;101267.50;4976548;28;20133;-78
2022/05/18 00:58:20;;;;;;;1.58;0.82;;;;;;;11.17;43.96;101271.38;4960915;28;20404;-77
2022/05/18 01:00:47;;;;;;;3.08;0.70;;;;;;;11.11;44.06;101269.56;4995031;28;20042;-77
2022/05/18 01:03:23;;;;;;;1.00;0.57;;;;;;;11.04;44.61;101272.69;4977542;28;20034;-77
2022/05/18 01:05:53;;;;;;;3.25;0.73;;;;;;;10.99;45.02;101278.94;4977559;28;20399;-77
2022/05/18 01:08:59;;;;;;;1.45;0.90;;;;;;;10.92;45.10;101285.69;4961633;28;20042;-77
2022/05/18 01:11:25;;;;;;;1.33;0.70;;;;;;;10.87;45.03;101280.56;4965345;28;20049;-77
2022/05/18 01:13:55;;;;;;;0.95;0.60;;;;;;;10.85;44.65;101280.22;4994783;28;20040;-77
2022/05/18 01:16:21;;;;;;;1.60;0.73;;;;;;;10.78;45.47;101286.16;4977342;28;20034;-77
2022/05/18 01:18:48;;;;;;;3.53;0.80;;;;;;;10.71;45.31;101286.38;4977239;28;20026;-77
2022/05/18 01:21:14;;;;;;;0.73;0.70;;;;;;;10.63;45.56;101287.84;4977127;28;20419;-77
2022/05/18 01:24:16;;;;;;;1.50;1.02;;;;;;;10.55;45.27;101298.69;4960821;28;20125;-77
2022/05/18 01:26:47;;;;;;;1.27;0.90;;;;;;;10.48;46.08;101292.41;4977218;28;20026;-77
2022/05/18 01:29:14;;;;;;;0.77;0.73;;;;;;;10.38;46.01;101289.44;4960923;28;20022;-78
2022/05/18 01:32:03;;;;;;;1.25;0.60;;;;;;;10.32;45.72;101296.13;4960707;28;20073;-77
2022/05/18 01:34:49;;;;;;;1.88;0.50;;;;;;;10.25;46.45;101302.06;4976738;28;20369;-79
2022/05/18 01:37:16;;;;;;;0.93;0.85;;;;;;;10.20;46.39;101297.72;4993388;28;20030;-78
2022/05/18 01:39:50;;;;;;;2.75;1.10;;;;;;;10.09;47.15;101302.91;4976962;28;20030;-77
2022/05/18 01:42:39;;;;;;;3.05;1.02;;;;;;;10.05;47.30;101315.63;4960907;28;20034;-77
2022/05/18 01:45:06;;;;;;;4.05;0.85;;;;;;;9.98;47.50;101314.59;4994160;28;20486;-77
2022/05/18 01:47:35;;;;;;;3.03;1.05;;;;;;;9.92;47.06;101322.06;4993972;28;20018;-77
2022/05/18 01:50:02;;;;;;;1.08;0.98;;;;;;;9.87;47.34;101313.28;4944633;28;20499;-76
2022/05/18 01:52:28;;;;;;;1.92;0.73;;;;;;;9.79;47.70;101324.09;4944931;28;20034;-76
2022/05/18 01:54:55;;;;;;;0.80;0.80;;;;;;;9.76;47.96;101327.84;4976384;28;20072;-77
2022/05/18 01:57:22;;;;;;;0.77;0.70;;;;;;;9.71;48.66;101336.13;4976801;28;20033;-77
2022/05/18 01:59:48;;;;;;;1.63;1.10;;;;;;;9.66;48.51;101325.28;4957132;28;20047;-79
2022/05/18 02:02:15;;;;;;;1.95;0.80;;;;;;;9.53;48.53;101316.66;4973283;28;20022;-76
2022/05/18 02:04:43;;;;;;;1.25;0.90;;;;;;;9.52;48.74;101335.78;4973151;28;20114;-77
2022/05/18 02:07:12;;;;;;;1.52;0.82;;;;;;;9.48;49.08;101342.81;4941264;28;20487;-76
2022/05/18 02:09:37;;;;;;;2.53;0.95;;;;;;;9.44;49.22;101342.91;4973295;28;20026;-77
2022/05/18 02:12:07;;;;;;;1.98;1.05;;;;;;;9.40;49.15;101342.19;4957063;28;20027;-77
2022/05/18 02:14:33;;;;;;;2.72;0.98;;;;;;;9.35;48.64;101350.47;4941441;28;20038;-77
2022/05/18 02:17:00;;;;;;;0.95;0.77;;;;;;;9.29;49.88;101340.88;4941085;28;20027;-77
2022/05/18 02:19:27;;;;;;;2.17;1.20;;;;;;;9.27;50.33;101355.53;4974544;28;20026;-76
2022/05/18 02:21:55;;;;;;;1.15;0.90;;;;;;;9.24;50.34;101359.25;4974500;28;20530;-77
2022/05/18 02:24:20;;;;;;;1.45;1.00;;;;;;;9.22;49.67;101372.34;4974323;28;20054;-78
2022/05/18 02:26:47;;;;;;;1.30;0.90;;;;;;;9.15;50.62;101359.09;4973061;28;20077;-78
2022/05/18 02:29:13;;;;;;;1.27;0.98;;;;;;;9.04;50.57;101352.84;4974006;28;20429;-77
2022/05/18 02:31:39;;;;;;;0.95;0.90;;;;;;;9.09;51.22;101370.19;4974217;28;20106;-77
2022/05/18 02:34:06;;;;;;;2.25;1.10;;;;;;;9.06;51.02;101373.91;4972365;28;20140;-79
2022/05/18 02:36:35;;;;;;;3.28;0.90;;;;;;;8.97;51.52;101372.94;4956804;28;20067;-78
2022/05/18 02:39:01;;;;;;;2.03;1.05;;;;;;;8.99;51.02;101373.28;4972797;28;20031;-77
2022/05/18 02:41:41;;;;;;;1.50;0.88;;;;;;;8.95;51.21;101376.22;4956953;28;20046;-76
2022/05/18 02:44:08;;;;;;;1.55;0.95;;;;;;;8.78;52.18;101368.88;4956871;28;20035;-78
2022/05/18 02:46:35;;;;;;;1.65;0.90;;;;;;;8.72;52.95;101376.34;4974273;28;20034;-77
2022/05/18 02:49:01;;;;;;;2.53;1.40;;;;;;;8.77;51.56;101381.50;4974367;28;20054;-77
2022/05/18 02:51:27;;;;;;;4.97;0.85;;;;;;;8.76;52.57;101381.94;4975273;28;20034;-77
2022/05/18 02:53:53;;;;;;;1.25;0.70;;;;;;;8.74;52.26;101392.94;4960524;28;20055;-78
2022/05/18 02:56:25;;;;;;;1.50;1.33;;;;;;;8.73;52.20;101395.00;4977803;28;20031;-76
2022/05/18 02:58:54;;;;;;;1.15;0.93;;;;;;;8.69;53.13;101397.09;4944413;28;20515;-76
2022/05/18 03:01:34;;;;;;;1.23;1.00;;;;;;;8.70;52.95;101395.06;4976729;28;20049;-78
2022/05/18 03:04:01;;;;;;;2.60;1.10;;;;;;;8.68;53.32;101404.81;4976893;28;20121;-77
2022/05/18 03:06:41;;;;;;;0.65;0.65;;;;;;;8.67;53.65;101408.09;4977871;28;20058;-77
2022/05/18 03:09:06;;;;;;;2.05;0.93;;;;;;;8.59;53.29;101404.59;4977794;28;20070;-78
2022/05/18 03:11:32;;;;;;;2.53;0.98;;;;;;;8.61;53.86;101415.53;4944274;28;20423;-78
2022/05/18 03:14:02;;;;;;;2.90;1.00;;;;;;;8.59;53.80;101415.16;4960335;28;20034;-78
2022/05/18 03:16:32;;;;;;;1.77;1.10;;;;;;;8.58;53.67;101422.88;4960142;28;20027;-76
2022/05/18 03:18:57;;;;;;;2.65;0.98;;;;;;;8.55;53.82;101418.09;4960121;28;20034;-77
2022/05/18 03:24:23;;;;;;;2.90;1.33;;;;;;;8.63;53.80;101441.47;4977358;28;20065;-76
2022/05/18 03:26:57;;;;;;;2.55;1.10;;;;;;;8.63;54.15;101433.72;4977351;28;20027;-78
2022/05/18 03:29:24;;;;;;;3.00;0.85;;;;;;;8.61;54.12;101422.00;4959790;28;20034;-76
2022/05/18 03:31:50;;;;;;;1.40;0.93;;;;;;;8.68;53.95;101437.31;4976927;28;20464;-77
2022/05/18 03:34:16;;;;;;;1.88;0.95;;;;;;;8.69;53.96;101436.84;4959788;28;20031;-77
2022/05/18 03:37:03;;;;;;;1.75;1.27;;;;;;;8.73;54.10;101445.31;4977048;28;20058;-77
2022/05/18 03:39:28;;;;;;;4.32;1.30;;;;;;;8.65;54.11;101436.94;4958237;28;20043;-76
2022/05/18 03:41:55;;;;;;;1.52;1.00;;;;;;;8.74;54.22;101446.91;4976767;28;20042;-77
2022/05/18 03:44:36;;;;;;;2.53;1.63;;;;;;;8.75;54.75;101459.88;4975513;28;20139;-77
2022/05/18 03:47:02;;;;;;;3.45;1.40;;;;;;;8.73;54.75;101454.63;4959602;28;20399;-77
2022/05/18 03:49:27;;;;;;;3.00;1.33;;;;;;;8.74;54.86;101459.06;4977001;28;20452;-77
2022/05/18 03:51:53;;;;;;;1.23;1.00;;;;;;;8.78;55.30;101467.53;4975667;28;20149;-77
2022/05/18 03:54:23;;;;;;;1.92;1.30;;;;;;;8.81;55.16;101472.31;4976162;28;20436;-77
2022/05/18 03:56:51;;;;;;;2.10;1.67;;;;;;;8.78;55.43;101465.47;4959589;28;20035;-77
2022/05/18 03:59:18;;;;;;;2.25;1.10;;;;;;;8.85;54.31;101471.00;4975508;28;20491;-77
2022/05/18 04:01:44;;;;;;;2.08;0.98;;;;;;;8.88;54.01;101475.78;4975682;28;20062;-77
2022/05/18 04:04:09;;;;;;;1.98;1.17;;;;;;;8.90;54.25;101476.16;4975437;28;20108;-77
2022/05/18 04:06:38;;;;;;;4.15;1.40;;;;;;;8.93;54.03;101472.44;4976559;28;20077;-78
2022/05/18 04:09:04;;;;;;;2.45;1.50;;;;;;;8.95;54.45;101469.16;4976725;28;20046;-77
2022/05/18 04:11:30;;;;;;;1.90;1.20;;;;;;;8.97;54.42;101472.38;4975237;28;20027;-76
2022/05/18 04:13:57;;;;;;;1.48;0.90;;;;;;;8.97;54.22;101469.53;4975733;28;20035;-77
2022/05/18 04:16:23;;;;;;;1.65;1.05;;;;;;;8.87;54.43;101450.69;4975203;28;20026;-76
2022/05/18 04:18:50;;;;;;;1.77;0.85;;;;;;;8.94;53.75;101471.22;4976086;28;20372;-77
2022/05/18 04:21:20;;;;;;;1.52;1.02;;;;;;;8.98;55.07;101477.59;4974767;28;20031;-77
2022/05/18 04:24:00;;;;;;;1.90;1.25;;;;;;;9.02;53.92;101486.06;4942765;28;20034;-76
2022/05/18 04:26:25;;;;;;;1.38;1.10;;;;;;;8.94;54.02;101459.03;4974684;28;20022;-77
2022/05/18 04:28:50;;;;;;;2.17;1.05;;;;;;;9.10;53.84;101478.97;4974356;28;20049;-78
2022/05/18 04:31:17;;;;;;;4.22;1.88;;;;;;;9.16;53.60;101485.75;4958260;28;20523;-77
2022/05/18 04:33:44;;;;;;;1.52;0.85;;;;;;;9.22;53.53;101492.53;4974424;28;20069;-78
2022/05/18 04:36:10;;;;;;;1.13;0.82;;;;;;;9.30;53.51;101491.09;4975809;28;20038;-78
2022/05/18 04:38:35;;;;;;;4.80;1.52;;;;;;;9.37;53.20;101493.78;4958322;28;20045;-76
2022/05/18 04:41:11;;;;;;;5.13;1.75;;;;;;;9.28;54.44;101496.41;4975919;28;20070;-77
2022/05/18 04:43:38;;;;;;;1.42;1.10;;;;;;;9.22;54.53;101505.94;4975445;28;20483;-77
2022/05/18 04:46:06;;;;;;;1.75;1.10;;;;;;;9.10;55.31;101494.00;4942254;28;20555;-78
2022/05/18 04:48:33;;;;;;;2.10;1.58;;;;;;;9.03;54.66;101484.81;4958261;28;20038;-78
2022/05/18 04:51:00;;;;;;;4.10;2.55;;;;;;;9.18;55.06;101499.50;4941797;28;20054;-78
2022/05/18 04:53:25;;;;;;;4.75;2.08;;;;;;;9.35;55.11;101499.13;4958007;28;20031;-77
2022/05/18 04:55:55;;;;;;;4.40;1.65;;;;;;;9.41;52.92;101500.19;4973784;28;20038;-76
2022/05/18 04:58:22;;;;;;;1.92;1.25;;;;;;;9.35;52.80;101499.13;4973700;28;20076;-78
2022/05/18 05:01:09;;;;;;;5.68;1.63;;;;;;;9.40;52.46;101509.16;4974065;28;20037;-77
2022/05/18 05:03:43;;;;;;;5.60;2.00;;;;;;;9.43;53.39;101505.44;4972464;28;20109;-78
2022/05/18 05:06:10;;;;;;;5.38;1.88;;;;;;;9.40;52.70;101517.69;4975071;28;20034;-78
2022/05/18 05:08:37;;;;;;;1.92;1.30;;;;;;;9.53;52.65;101515.75;4973625;28;20126;-78
2022/05/18 05:11:06;;;;;;;2.70;1.27;;;;;;;9.45;52.14;101502.94;4975267;28;20040;-77
2022/05/18 05:13:33;;;;;;;2.28;1.38;;;;;;;9.44;52.16;101504.19;4973644;28;20559;-78
2022/05/18 05:16:09;;;;;;;3.97;1.50;;;;;;;9.66;51.80;101515.88;4941252;28;20038;-77
2022/05/18 05:18:35;;;;;;;4.35;1.73;;;;;;;9.69;50.82;101509.28;4973830;28;20030;-78
2022/05/18 05:21:02;;;;;;;3.42;1.40;;;;;;;9.73;50.93;101512.84;4973874;28;20034;-77
2022/05/18 05:23:29;;;;;;;2.08;1.27;;;;;;;9.78;50.03;101510.25;4957203;28;20404;-77
2022/05/18 05:25:56;;;;;;;2.13;1.20;;;;;;;9.80;48.89;101512.66;4973989;28;20035;-78
2022/05/18 05:28:22;;;;;;;1.60;1.10;;;;;;;9.91;49.58;101518.91;4957604;28;20038;-78
2022/05/18 05:30:48;;;;;;;16.65;2.38;;;;;;;9.99;49.68;101517.47;4973875;28;20034;-77
2022/05/18 05:33:18;;;;;;;2.78;1.50;;;;;;;9.98;49.60;101518.72;4973967;28;20043;-78
2022/05/18 05:35:45;;;;;;;1.90;1.30;;;;;;;10.00;48.89;101523.97;4957404;28;20125;-78
2022/05/18 05:38:11;;;;;;;5.03;1.60;;;;;;;10.06;49.39;101528.69;4973013;28;20206;-80
2022/05/18 05:40:38;;;;;;;4.50;1.60;;;;;;;10.18;49.61;101536.53;4972911;28;20039;-79
2022/05/18 05:43:13;;;;;;;3.30;1.35;;;;;;;10.25;49.84;101541.25;4956525;28;20155;-78
2022/05/18 05:45:39;;;;;;;7.57;1.60;;;;;;;10.43;49.62;101530.16;4957885;28;20026;-86
2022/05/18 05:48:09;;;;;;;5.50;1.85;;;;;;;10.60;49.16;101528.09;4958389;28;20262;-77
2022/05/18 05:50:35;;;;;;;3.97;1.90;;;;;;;10.49;49.05;101538.97;4959106;28;20010;-82
2022/05/18 05:53:02;;;;;;;3.03;1.92;;;;;;;10.64;48.33;101538.13;4959188;28;20051;-82
2022/05/18 05:55:28;;;;;;;9.77;2.72;;;;;;;10.71;48.99;101535.06;4957571;28;20112;-82
2022/05/18 05:57:56;;;;;;;15.13;2.75;;;;;;;10.93;48.61;101523.88;4959410;28;20491;-87
2022/05/18 06:00:23;;;;;;;20.42;4.63;;;;;;;11.14;48.49;101534.66;4978253;28;20034;-83
2022/05/18 06:02:50;;;;;;;4.43;1.88;;;;;;;11.12;48.39;101531.44;4976982;28;20045;-87
2022/05/18 06:05:30;;;;;;;2.55;1.60;;;;;;;11.30;47.01;101533.75;4960911;28;20042;-86
2022/05/18 06:07:57;;;;;;;9.27;1.65;;;;;;;11.40;46.27;101537.53;4997272;28;20034;-85
2022/05/18 06:10:24;;;;;;;10.43;2.30;;;;;;;11.57;46.06;101516.22;4977926;28;20054;-85
2022/05/18 06:12:50;;;;;;;4.45;1.20;;;;;;;11.85;45.51;101548.75;4977643;28;20030;-87
2022/05/18 06:15:17;;;;;;;6.75;1.50;;;;;;;11.87;44.93;101552.78;4978469;28;20476;-85
2022/05/18 06:17:51;;;;;;;3.38;1.30;;;;;;;11.94;44.89;101534.63;4980758;28;20038;-84
2022/05/18 06:20:17;;;;;;;1.85;1.00;;;;;;;12.07;45.12;101529.69;5001984;28;20460;-84
2022/05/18 06:22:45;;;;;;;3.90;0.93;;;;;;;12.45;44.83;101550.38;4976817;28;20031;-82
2022/05/18 06:25:14;;;;;;;1.92;0.80;;;;;;;13.83;42.99;101544.34;4994746;28;20365;-81
2022/05/18 06:27:42;;;;;;;6.05;1.92;;;;;;;15.63;37.65;101526.88;4981012;28;20030;-81
2022/05/18 06:30:10;;;;;;;2.25;1.25;;;;;;;17.64;34.29;101532.69;4996822;28;20037;-80
2022/05/18 06:32:47;;;;;;;2.90;1.02;;;;;;;19.78;28.90;101518.31;4979328;28;20042;-80
2022/05/18 06:35:12;;;;;;;5.60;2.05;;;;;;;21.57;26.70;101523.53;4996317;28;20148;-78
2022/05/18 06:37:39;;;;;;;4.60;1.77;;;;;;;23.22;24.20;101517.00;4996214;28;20110;-77
2022/05/18 06:40:09;;;;;;;3.53;1.40;;;;;;;24.33;23.68;101533.53;4978779;28;20026;-78
2022/05/18 06:42:37;;;;;;;1.67;1.08;;;;;;;25.33;21.23;101525.63;4979318;28;20391;-78
2022/05/18 06:45:03;;;;;;;5.57;1.20;;;;;;;26.80;19.50;101535.72;4996067;28;20549;-80
2022/05/18 06:47:31;;;;;;;2.15;1.25;;;;;;;27.37;20.34;101545.63;4978604;28;20033;-80
2022/05/18 06:49:58;;;;;;;3.33;0.98;;;;;;;28.39;19.97;101547.59;4979612;28;20036;-80
2022/05/18 06:52:24;;;;;;;2.13;1.10;;;;;;;28.52;17.17;101553.34;4979626;28;20041;-78
2022/05/18 06:54:51;;;;;;;1.70;1.02;;;;;;;29.26;18.61;101544.78;4979348;28;20038;-80
2022/05/18 06:57:17;;;;;;;3.00;1.00;;;;;;;29.32;17.55;101551.25;4979693;28;20026;-79
2022/05/18 06:59:57;;;;;;;1.38;0.90;;;;;;;29.21;17.84;101555.31;4959744;28;20046;-79
2022/05/18 07:02:23;;;;;;;4.20;1.02;;;;;;;28.87;18.11;101555.53;4960273;28;20047;-79
2022/05/18 07:04:49;;;;;;;2.50;1.17;;;;;;;29.23;16.30;101560.59;4960038;28;20038;-78
2022/05/18 07:07:15;;;;;;;1.63;0.65;;;;;;;29.59;17.30;101559.19;4977508;28;20121;-79
2022/05/18 07:09:41;;;;;;;1.27;0.93;;;;;;;29.02;16.51;101558.56;4960003;28;20488;-79
2022/05/18 07:12:08;;;;;;;1.85;1.20;;;;;;;28.72;17.53;101576.00;4977865;28;20030;-79
2022/05/18 07:14:33;;;;;;;1.30;1.10;;;;;;;29.16;16.68;101568.00;4975797;28;20031;-79
2022/05/18 07:16:59;;;;;;;3.67;0.98;;;;;;;29.97;17.42;101556.34;4977277;28;20101;-78
2022/05/18 07:19:29;;;;;;;2.92;1.42;;;;;;;29.82;15.68;101568.03;4959750;28;20023;-77
2022/05/18 07:21:56;;;;;;;3.28;1.20;;;;;;;30.26;16.54;101568.69;4976843;28;20038;-78
2022/05/18 07:24:22;;;;;;;4.97;0.82;;;;;;;31.33;16.22;101559.63;4976844;28;20038;-78
2022/05/18 07:26:48;;;;;;;0.98;0.88;;;;;;;31.38;15.82;101556.44;4975837;28;20031;-78
2022/05/18 07:29:15;;;;;;;2.08;1.10;;;;;;;31.26;14.55;101584.78;4975480;28;20480;-79
2022/05/18 07:34:26;;;;;;;2.70;1.00;;;;;;;32.06;15.61;101564.88;4962123;28;20166;-77
2022/05/18 07:37:07;;;;;;;1.15;1.00;;;;;;;32.42;14.28;101558.47;4959189;28;20232;-78
2022/05/18 07:39:35;;;;;;;6.60;1.98;;;;;;;31.08;14.41;101562.50;4976184;28;20045;-79
2022/05/18 07:42:00;;;;;;;16.08;3.30;;;;;;;31.80;14.90;101562.50;4959629;28;20043;-78
2022/05/18 07:44:27;;;;;;;4.32;1.48;;;;;;;31.98;14.25;101563.34;4942965;28;20168;-77
2022/05/18 07:46:55;;;;;;;4.25;1.98;;;;;;;32.72;15.06;101556.63;4959279;28;20022;-79
2022/05/18 07:49:22;;;;;;;6.65;1.80;;;;;;;32.67;13.68;101566.50;4976252;28;20126;-78
2022/05/18 07:51:47;;;;;;;4.70;1.27;;;;;;;32.32;13.33;101557.56;4976036;28;20182;-79
2022/05/18 07:54:13;;;;;;;4.07;1.65;;;;;;;32.31;14.60;101561.94;4976734;28;20106;-78
2022/05/18 07:56:40;;;;;;;1.92;1.15;;;;;;;32.69;14.50;101564.53;4975210;28;20137;-77
2022/05/18 07:59:07;;;;;;;3.28;2.08;;;;;;;32.09;13.93;101566.59;4959184;28;20051;-78
2022/05/18 08:01:36;;;;;;;4.72;1.40;;;;;;;32.35;13.60;101564.44;4942718;28;20089;-78
2022/05/18 08:04:04;;;;;;;3.65;1.00;;;;;;;32.65;13.82;101546.47;4959495;28;20039;-77
2022/05/18 08:06:31;;;;;;;1.92;0.90;;;;;;;31.79;13.03;101548.34;4958784;28;20057;-77
2022/05/18 08:08:57;;;;;;;2.38;1.38;;;;;;;31.26;14.03;101559.06;4974826;28;20027;-77
2022/05/18 08:16:52;;;;;;;1.58;1.20;;;;;;;31.13;16.84;101558.53;4976211;28;20037;-77
2022/05/18 08:19:18;;;;;;;5.20;1.10;;;;;;;30.75;15.62;101556.47;4974561;28;20034;-76
2022/05/18 08:21:44;;;;;;;1.88;1.08;;;;;;;30.13;14.79;101565.94;4976104;28;20023;-76
2022/05/18 08:24:11;;;;;;;1.30;1.10;;;;;;;30.44;15.54;101570.41;4974965;28;20026;-77
2022/05/18 08:26:41;;;;;;;1.10;1.00;;;;;;;30.70;15.03;101539.03;4975685;28;20026;-76
2022/05/18 08:29:06;;;;;;;1.98;1.10;;;;;;;29.94;15.84;101572.22;4975797;28;20029;-76
2022/05/18 08:31:34;;;;;;;2.20;0.98;;;;;;;30.31;15.24;101567.69;4974846;28;20125;-77
2022/05/18 08:34:07;;;;;;;3.75;1.20;;;;;;;30.62;15.88;101559.66;4958381;28;20071;-77
2022/05/18 08:36:34;;;;;;;3.03;1.10;;;;;;;30.86;14.93;101564.88;4974287;28;20033;-76
2022/05/18 08:38:59;;;;;;;1.75;0.80;;;;;;;30.27;16.37;101566.53;4974042;28;20054;-75
2022/05/18 08:41:28;;;;;;;4.18;1.25;;;;;;;30.29;15.61;101567.47;4939037;29;20477;-77
2022/05/18 08:43:57;;;;;;;3.25;1.00;;;;;;;30.22;16.69;101549.84;4954890;29;20019;-77
2022/05/18 08:46:43;;;;;;;4.97;1.35;;;;;;;30.50;15.31;101561.41;4939059;29;20070;-76
2022/05/18 08:49:21;;;;;;;2.25;1.23;;;;;;;30.13;14.76;101560.06;4955525;28;20023;-77
2022/05/18 08:51:50;;;;;;;1.55;0.98;;;;;;;30.37;13.83;101562.41;4955961;29;20047;-76
2022/05/18 08:54:52;;;;;;;2.60;1.08;;;;;;;30.15;14.54;101565.34;4956308;29;20046;-75
2022/05/18 08:57:38;;;;;;;2.17;0.80;;;;;;;30.39;16.31;101559.63;4956089;29;20027;-76
2022/05/18 09:00:13;;;;;;;12.05;2.10;;;;;;;29.99;14.24;101564.56;4972890;28;20057;-76
2022/05/18 09:02:41;;;;;;;7.82;1.48;;;;;;;29.72;14.76;101564.09;4958052;28;20027;-75
2022/05/18 09:05:35;;;;;;;4.72;1.30;;;;;;;29.71;14.87;101553.72;4941999;28;20023;-77
2022/05/18 09:08:12;;;;;;;2.15;1.20;;;;;;;29.58;14.75;101557.63;4957909;28;20427;-77
2022/05/18 09:10:52;;;;;;;3.22;1.17;;;;;;;29.10;14.38;101555.66;4957828;28;20027;-76
2022/05/18 09:13:20;;;;;;;4.07;1.30;;;;;;;28.94;15.20;101554.81;4974665;28;20165;-77
2022/05/18 09:16:12;;;;;;;0.60;0.57;;;;;;;28.38;14.46;101558.53;4941799;28;20085;-76
2022/05/18 09:18:51;;;;;;;1.95;0.90;;;;;;;28.04;14.62;101564.50;4974790;28;20027;-77
2022/05/18 09:21:50;;;;;;;2.17;0.80;;;;;;;28.13;16.14;101560.28;4957450;28;20027;-76
2022/05/18 09:24:23;;;;;;;5.50;1.67;;;;;;;27.70;15.17;101564.56;4974698;28;20055;-77
2022/05/18 09:27:01;;;;;;;2.08;1.23;;;;;;;27.37;15.86;101569.06;4974612;28;20030;-77
2022/05/18 09:29:42;;;;;;;2.88;1.02;;;;;;;27.72;17.59;101561.84;4974874;28;20389;-77
2022/05/18 09:32:19;;;;;;;1.20;0.65;;;;;;;27.41;18.46;101568.69;4975032;28;20030;-77
2022/05/18 09:35:13;;;;;;;12.90;2.33;;;;;;;27.45;16.05;101569.13;4974658;28;20066;-77
2022/05/18 09:37:45;;;;;;;5.32;1.55;;;;;;;26.88;16.20;101562.19;4957694;28;20023;-77
2022/05/18 09:40:24;;;;;;;9.02;1.25;;;;;;;26.72;17.01;101569.91;4975377;28;20023;-77
2022/05/18 09:43:05;;;;;;;3.30;0.90;;;;;;;26.78;20.44;101573.53;4956702;28;20077;-76
2022/05/18 09:45:33;;;;;;;1.65;0.95;;;;;;;26.50;18.07;101577.00;4974185;28;20065;-76
2022/05/18 09:48:09;;;;;;;1.25;1.15;;;;;;;26.34;18.13;101574.41;4940805;28;20472;-77
2022/05/18 09:50:38;;;;;;;2.53;1.38;;;;;;;26.20;18.38;101573.53;4957429;28;20061;-78
2022/05/18 09:53:05;;;;;;;10.13;2.35;;;;;;;25.78;18.71;101572.44;4941293;28;20126;-77
2022/05/18 09:55:39;;;;;;;3.63;1.10;;;;;;;25.87;17.51;101572.00;4941124;28;20035;-76
2022/05/18 09:58:14;;;;;;;1.50;1.05;;;;;;;25.29;17.12;101560.97;4957294;28;20102;-79
2022/05/18 10:00:41;;;;;;;0.75;0.70;;;;;;;24.99;19.45;101565.34;4958764;28;20034;-80
2022/05/18 10:09:22;;;;;;;0.77;0.77;;;;;;;24.45;22.29;101561.22;4963926;28;20499;-78
2022/05/18 10:11:47;;;;;;;1.05;1.05;;;;;;;24.21;18.87;101552.47;4961236;28;20069;-79
2022/05/18 10:14:33;;;;;;;3.28;0.93;;;;;;;23.79;18.46;101553.88;4976097;28;20066;-79
2022/05/18 10:17:05;;;;;;;1.08;0.88;;;;;;;23.60;21.38;101547.97;4963700;28;20034;-79
2022/05/18 10:19:52;;;;;;;2.65;0.75;;;;;;;23.20;19.57;101554.53;4952905;28;20110;-79
2022/05/18 10:22:21;;;;;;;0.68;0.60;;;;;;;23.06;18.99;101553.56;4971048;28;20042;-80
2022/05/18 10:25:08;;;;;;;1.90;0.85;;;;;;;23.10;20.20;101541.66;4970398;28;20472;-74
2022/05/18 10:27:39;;;;;;;1.95;0.60;;;;;;;22.91;19.74;101541.50;4946064;28;20430;-75
2022/05/18 10:30:28;;;;;;;1.08;0.82;;;;;;;22.50;21.54;101549.31;4955956;28;20027;-74
2022/05/18 10:33:20;;;;;;;7.25;1.00;;;;;;;22.38;21.53;101543.53;4986940;28;20023;-75
2022/05/18 10:35:49;;;;;;;1.30;0.70;;;;;;;22.27;22.73;101507.91;4979379;28;20019;-74
2022/05/18 10:38:30;;;;;;;1.13;0.65;;;;;;;22.25;24.70;101525.84;4944385;28;20050;-75
2022/05/18 10:41:02;;;;;;;;;;;;;;;22.28;21.37;101542.22;4960718;28;20118;-75
2022/05/18 10:43:42;;;;;;;1.17;0.80;;;;;;;21.85;24.63;101540.94;4977904;28;19917;-75
2022/05/18 10:46:10;;;;;;;1.98;0.80;;;;;;;21.57;22.31;101549.63;4960434;28;20033;-75
2022/05/18 10:48:36;;;;;;;2.63;0.60;;;;;;;21.27;20.57;101536.94;4944846;28;20080;-76
2022/05/18 10:51:13;;;;;;;1.08;0.75;;;;;;;21.21;20.83;101533.25;4944571;28;20073;-76
2022/05/18 10:53:48;;;;;;;2.63;0.85;;;;;;;21.10;22.14;101536.88;4960563;28;20026;-77
2022/05/18 10:56:28;;;;;;;1.30;0.73;;;;;;;20.85;22.01;101534.97;4973047;28;20110;-76
2022/05/18 10:59:30;;;;;;;7.00;1.05;;;;;;;20.91;22.26;101518.41;4959360;28;20093;-75
2022/05/18 11:02:27;;;;;;;1.60;0.80;;;;;;;20.77;20.93;101522.31;4974636;28;20039;-74
2022/05/18 11:05:05;;;;;;;1.45;1.10;;;;;;;20.76;19.91;101524.41;4976883;28;20030;-73
2022/05/18 11:07:37;;;;;;;2.45;1.05;;;;;;;20.71;20.25;101527.28;4959970;28;20023;-73
2022/05/18 11:10:03;;;;;;;4.22;1.17;;;;;;;20.42;21.81;101514.78;4976319;28;20030;-75
2022/05/18 11:12:54;;;;;;;3.08;0.90;;;;;;;20.46;22.07;101515.34;4975368;28;20019;-74
2022/05/18 11:15:22;;;;;;;3.60;0.75;;;;;;;20.47;22.39;101514.03;4959778;28;20423;-73
2022/05/18 11:18:07;;;;;;;2.13;0.98;;;;;;;20.30;19.71;101507.31;4975650;28;20026;-72
2022/05/18 11:21:07;;;;;;;2.70;1.08;;;;;;;20.07;20.25;101509.31;4975926;28;20054;-73
2022/05/18 11:24:05;;;;;;;1.88;1.63;;;;;;;20.23;22.28;101499.13;4976545;28;20042;-74
2022/05/18 11:26:34;;;;;;;1.65;0.77;;;;;;;20.15;21.94;101501.72;4976936;28;20078;-75
2022/05/18 11:29:47;;;;;;;1.70;0.73;;;;;;;20.11;19.12;101506.97;5102260;23;20053;-80
2022/05/18 11:32:39;;;;;;;1.50;0.70;;;;;;;19.98;18.54;101497.16;4968001;28;20038;-82
2022/05/18 11:35:16;;;;;;;1.17;0.63;;;;;;;20.00;20.62;101489.53;5022328;28;20060;-83
2022/05/18 11:38:09;;;;;;;0.85;0.57;;;;;;;20.19;20.18;101487.00;5057558;28;20124;-81
2022/05/18 11:40:49;;;;;;;2.47;0.70;;;;;;;20.01;18.32;101484.53;5074583;28;20055;-82
2022/05/18 11:43:43;;;;;;;0.80;0.50;;;;;;;19.99;18.67;101481.34;5076382;28;20037;-84
2022/05/18 11:46:28;;;;;;;0.90;0.63;;;;;;;19.87;17.05;101480.50;5075073;28;20028;-83
2022/05/18 11:49:00;;;;;;;1.27;0.65;;;;;;;19.83;18.17;101479.97;5059012;28;20024;-83
2022/05/18 11:51:47;;;;;;;3.40;1.05;;;;;;;19.83;18.60;101474.94;5076460;28;20028;-83
2022/05/18 11:54:54;;;;;;;1.17;0.88;;;;;;;19.58;20.39;101478.72;5058790;28;20039;-82
2022/05/18 11:57:52;;;;;;;2.78;0.80;;;;;;;19.60;20.73;101472.41;5066392;28;20108;-82
2022/05/18 12:00:56;;;;;;;0.70;0.60;;;;;;;19.63;19.63;101477.19;5075794;28;20024;-82
2022/05/18 12:03:49;;;;;;;0.57;0.47;;;;;;;19.65;19.64;101474.56;5060926;28;20039;-83
2022/05/18 12:06:31;;;;;;;1.25;0.80;;;;;;;19.48;20.01;101468.66;5082215;28;20032;-82